Time;durP1;ratioP1;P1;durP2;ratioP2;P2;SDS_P1;SDS_P2;PMS_P1;PMS_P2;Temp;Humidity;BMP_temperature;BMP_pressure;BME280_temperature;BME280_humidity;BME280_pressure;Samples;Min_cycle;Max_cycle;Signal;HPM_P1;HPM_P2
2021/05/28 00:01:45;;;;;;;;;11.50;10.50;;;;;15.34;50.29;101666.69;5062513;28;45291;-62
2021/05/28 00:04:11;;;;;;;;;15.50;12.25;;;;;15.32;50.39;101671.13;5062483;28;45418;-61
2021/05/28 00:06:36;;;;;;;;;11.50;11.00;;;;;15.31;50.28;101666.72;5062415;28;46054;-61
2021/05/28 00:09:03;;;;;;;;;13.50;9.50;;;;;15.28;50.61;101671.19;5072118;28;45318;-62
2021/05/28 00:11:28;;;;;;;;;14.00;13.75;;;;;15.26;50.46;101670.34;5079746;28;45407;-61
2021/05/28 00:13:54;;;;;;;;;12.50;10.75;;;;;15.25;50.63;101665.09;5062109;28;45582;-62
2021/05/28 00:16:19;;;;;;;;;12.50;11.50;;;;;15.23;50.92;101666.88;5062237;28;46167;-61
2021/05/28 00:18:44;;;;;;;;;10.25;10.25;;;;;15.20;50.83;101669.59;5071608;28;45438;-62
2021/05/28 00:21:10;;;;;;;;;11.50;11.50;;;;;15.17;51.19;101670.53;5079325;27;45232;-62
2021/05/28 00:23:35;;;;;;;;;16.00;13.00;;;;;15.13;51.18;101674.13;5062235;28;45231;-61
2021/05/28 00:26:01;;;;;;;;;8.50;8.25;;;;;15.11;51.41;101674.16;5069567;28;46755;-62
2021/05/28 00:28:26;;;;;;;;;13.00;11.50;;;;;15.10;51.26;101674.19;5072129;28;45456;-61
2021/05/28 00:30:51;;;;;;;;;14.00;11.75;;;;;15.07;51.61;101675.13;5065628;27;45217;-63
2021/05/28 00:33:17;;;;;;;;;10.00;10.00;;;;;15.04;51.88;101675.19;5062045;28;45389;-62
2021/05/28 00:35:42;;;;;;;;;11.75;11.75;;;;;15.01;51.99;101669.94;5077281;28;46838;-62
2021/05/28 00:38:07;;;;;;;;;13.25;11.00;;;;;14.99;52.09;101665.56;5062161;28;45311;-63
2021/05/28 00:40:33;;;;;;;;;10.75;9.25;;;;;14.97;51.95;101673.53;5062059;28;45259;-63
2021/05/28 00:42:58;;;;;;;;;11.00;11.00;;;;;14.96;52.22;101674.44;5061871;28;45318;-62
2021/05/28 00:45:24;;;;;;;;;9.50;9.00;;;;;14.90;52.44;101669.25;5061684;28;46797;-63
2021/05/28 00:47:49;;;;;;;;;11.00;11.00;;;;;14.84;52.61;101667.59;5061987;28;45691;-63
2021/05/28 00:50:15;;;;;;;;;12.75;9.00;;;;;14.82;52.96;101672.03;5061709;28;45405;-63
2021/05/28 00:52:40;;;;;;;;;11.75;10.00;;;;;14.79;52.91;101672.06;5073507;28;45342;-60
2021/05/28 00:55:07;;;;;;;;;10.00;10.00;;;;;14.78;52.89;101673.00;5064981;27;45315;-62
2021/05/28 00:57:33;;;;;;;;;13.00;12.00;;;;;14.76;52.92;101680.06;5069855;28;45293;-61
2021/05/28 01:00:03;;;;;;;;;11.75;11.75;;;;;14.74;53.41;101680.09;5066957;27;45258;-61
2021/05/28 01:02:28;;;;;;;;;12.75;11.00;;;;;14.68;53.26;101674.91;5061574;28;45605;-62
2021/05/28 01:04:53;;;;;;;;;13.25;10.75;;;;;14.68;53.61;101682.84;5061050;28;46772;-62
2021/05/28 01:07:20;;;;;;;;;10.75;8.25;;;;;14.68;53.33;101690.78;5077080;28;45682;-62
2021/05/28 01:09:45;;;;;;;;;14.75;11.00;;;;;14.67;52.83;101688.16;5061565;28;45317;-62
2021/05/28 01:12:11;;;;;;;;;15.00;10.50;;;;;14.65;53.69;101693.47;5061308;28;45456;-62
2021/05/28 01:14:36;;;;;;;;;11.50;10.00;;;;;14.63;53.85;101690.81;5061135;28;45456;-62
2021/05/28 01:17:02;;;;;;;;;13.00;13.00;;;;;14.62;53.74;101690.84;5061490;28;45331;-61
2021/05/28 01:19:27;;;;;;;;;10.50;10.00;;;;;14.60;53.98;101692.63;5074669;28;45165;-61
2021/05/28 01:21:55;;;;;;;;;11.00;10.00;;;;;14.57;53.77;101688.25;5061392;28;45536;-60
2021/05/28 01:24:21;;;;;;;;;13.50;12.25;;;;;14.57;54.06;101693.56;5060638;28;45258;-62
2021/05/28 01:26:46;;;;;;;;;9.75;9.75;;;;;14.55;54.11;101683.91;5070175;28;45596;-62
2021/05/28 01:29:12;;;;;;;;;13.00;13.00;;;;;14.53;54.34;101691.88;5066163;27;45308;-62
2021/05/28 01:31:37;;;;;;;;;11.25;10.25;;;;;14.51;54.47;101690.16;5061280;28;45429;-61
2021/05/28 01:34:03;;;;;;;;;11.75;10.25;;;;;14.47;54.52;101686.66;5060795;28;45397;-61
2021/05/28 01:36:29;;;;;;;;;14.00;12.00;;;;;14.42;54.50;101678.78;5061149;28;45291;-61
2021/05/28 01:38:54;;;;;;;;;11.75;11.75;;;;;14.43;54.61;101683.19;5076625;28;45314;-65
2021/05/28 01:41:20;;;;;;;;;14.00;11.25;;;;;14.41;54.73;101690.25;5061030;28;45446;-63
2021/05/28 01:43:45;;;;;;;;;11.25;11.25;;;;;14.39;54.80;101680.59;5060483;28;46094;-62
2021/05/28 01:46:11;;;;;;;;;15.00;14.00;;;;;14.38;54.81;101686.81;5061049;28;45412;-62
2021/05/28 01:48:39;;;;;;;;;11.00;9.75;;;;;14.35;54.78;101686.84;5060767;28;45579;-62
2021/05/28 01:51:06;;;;;;;;;10.00;10.00;;;;;14.35;54.78;101678.91;5059729;28;45321;-62
2021/05/28 01:53:32;;;;;;;;;13.25;12.50;;;;;14.33;55.14;101684.22;5076219;28;46439;-63
2021/05/28 01:55:57;;;;;;;;;11.00;11.00;;;;;14.30;55.15;101690.44;5060754;28;45664;-61
2021/05/28 01:58:23;;;;;;;;;11.75;11.75;;;;;14.28;55.15;101684.28;5073031;28;45355;-62
2021/05/28 02:00:51;;;;;;;;;12.25;11.00;;;;;14.25;55.23;101684.34;5060783;28;45476;-62
2021/05/28 02:03:18;;;;;;;;;12.00;12.00;;;;;14.24;55.67;101693.16;5060489;28;46013;-62
2021/05/28 02:05:45;;;;;;;;;10.75;10.75;;;;;14.22;55.61;101696.72;5059063;28;45189;-62
2021/05/28 02:08:11;;;;;;;;;11.75;11.75;;;;;14.19;55.80;101689.72;5060532;28;45235;-61
2021/05/28 02:10:36;;;;;;;;;12.50;10.75;;;;;14.16;55.87;101684.47;5060645;28;45238;-63
2021/05/28 02:13:02;;;;;;;;;12.75;12.00;;;;;14.12;55.74;101691.59;5072345;27;46078;-62
2021/05/28 02:15:28;;;;;;;;;13.00;11.00;;;;;14.12;56.00;101698.63;5080674;27;45823;-62
2021/05/28 02:17:54;;;;;;;;;15.00;13.75;;;;;14.10;56.21;101703.06;5066518;27;45355;-62
2021/05/28 02:20:20;;;;;;;;;11.50;11.50;;;;;14.04;56.34;101700.50;5075699;28;45385;-62
2021/05/28 02:22:46;;;;;;;;;14.00;13.00;;;;;14.01;56.53;101700.53;5060027;28;46354;-61
2021/05/28 02:25:13;;;;;;;;;11.50;11.25;;;;;13.96;56.59;101696.19;5060900;28;45445;-61
2021/05/28 02:27:39;;;;;;;;;12.50;12.50;;;;;13.95;56.74;101705.00;5076723;28;45278;-61
2021/05/28 02:30:06;;;;;;;;;11.25;11.00;;;;;13.91;56.75;101713.00;5096246;27;45357;-61
2021/05/28 02:32:31;;;;;;;;;12.50;12.25;;;;;13.87;56.88;101708.66;5080136;27;46484;-61
2021/05/28 02:34:56;;;;;;;;;11.25;8.75;;;;;13.80;57.01;101708.72;5080196;27;45284;-61
2021/05/28 02:37:22;;;;;;;;;13.50;12.00;;;;;13.83;57.01;101707.81;5079253;27;45214;-60
2021/05/28 02:39:47;;;;;;;;;13.50;12.50;;;;;13.82;57.40;101716.63;5080525;27;45364;-60
2021/05/28 02:42:13;;;;;;;;;13.00;12.00;;;;;13.78;57.60;101712.28;5062917;27;45407;-58
2021/05/28 02:44:39;;;;;;;;;13.25;13.25;;;;;13.76;57.36;101714.94;5060025;28;45307;-58
2021/05/28 02:47:05;;;;;;;;;15.00;13.00;;;;;13.73;57.27;101709.69;5076834;28;45418;-59
2021/05/28 02:49:30;;;;;;;;;14.25;12.50;;;;;13.74;57.47;101715.84;5079946;27;45465;-60
2021/05/28 02:51:56;;;;;;;;;15.75;13.25;;;;;13.73;57.67;101709.69;5079634;27;46106;-60
2021/05/28 02:54:22;;;;;;;;;14.00;13.75;;;;;13.72;57.43;101715.00;5080013;27;45401;-60
2021/05/28 02:56:48;;;;;;;;;19.25;16.50;;;;;13.70;57.52;101709.72;5066471;27;45169;-59
2021/05/28 02:59:13;;;;;;;;;12.75;12.75;;;;;13.69;57.36;101704.47;5086930;27;45292;-59
2021/05/28 03:01:38;;;;;;;;;19.00;17.25;;;;;13.71;57.44;101710.59;5059680;28;45387;-59
2021/05/28 03:04:04;;;;;;;;;14.50;14.00;;;;;13.70;57.65;101707.09;5059850;28;45269;-60
2021/05/28 03:06:30;;;;;;;;;15.50;13.50;;;;;13.67;57.55;101704.47;5059817;28;45223;-60
2021/05/28 03:08:56;;;;;;;;;15.00;12.25;;;;;13.67;57.81;101715.03;5059974;28;45238;-60
2021/05/28 03:11:21;;;;;;;;;17.75;14.25;;;;;13.63;57.67;101714.22;5059364;28;45308;-59
2021/05/28 03:13:47;;;;;;;;;14.00;14.00;;;;;13.66;57.66;101721.22;5059549;28;45228;-59
2021/05/28 03:16:12;;;;;;;;;14.25;14.00;;;;;13.65;57.90;101712.41;5059682;28;45207;-59
2021/05/28 03:24:02;;;;;;;;;15.75;14.75;;;;;13.60;58.07;101708.09;5066518;27;45472;-59
2021/05/28 03:26:28;;;;;;;;;14.25;13.50;;;;;13.62;57.93;101722.13;5067041;28;45305;-60
2021/05/28 03:28:55;;;;;;;;;13.00;13.00;;;;;13.60;58.16;101714.25;5065594;28;45219;-60
2021/05/28 03:31:21;;;;;;;;;17.50;17.50;;;;;13.55;58.14;101702.84;5059253;28;46323;-60
2021/05/28 03:33:47;;;;;;;;;14.75;13.25;;;;;13.57;58.17;101711.66;5058869;28;45205;-60
2021/05/28 03:36:15;;;;;;;;;21.00;19.00;;;;;13.55;58.63;101705.50;5059558;28;45213;-59
2021/05/28 03:38:41;;;;;;;;;13.50;13.50;;;;;13.53;58.42;101704.63;5073558;28;45484;-59
2021/05/28 03:41:07;;;;;;;;;17.50;17.00;;;;;13.51;58.58;101705.53;5087461;27;45323;-60
2021/05/28 03:43:34;;;;;;;;;15.00;14.00;;;;;13.49;58.67;101713.47;5058896;28;45243;-61
2021/05/28 03:46:00;;;;;;;;;13.50;13.50;;;;;13.49;58.54;101719.63;5059469;28;45409;-60
2021/05/28 03:48:25;;;;;;;;;17.50;16.75;;;;;13.47;58.66;101718.78;5060697;28;45509;-63
2021/05/28 03:50:51;;;;;;;;;15.00;15.00;;;;;13.47;58.71;101718.78;5062803;28;45312;-60
2021/05/28 03:53:16;;;;;;;;;15.00;15.00;;;;;13.46;58.58;101714.41;5077630;28;45281;-58
2021/05/28 03:55:42;;;;;;;;;17.25;15.00;;;;;13.43;58.61;101701.25;5062770;28;45251;-59
2021/05/28 03:58:07;;;;;;;;;14.00;14.00;;;;;13.43;58.66;101701.25;5075701;28;45176;-60
2021/05/28 04:00:32;;;;;;;;;27.25;26.50;;;;;13.44;58.90;101707.38;5061558;28;45561;-60
2021/05/28 04:02:58;;;;;;;;;31.50;26.75;;;;;13.40;58.90;101697.75;5062590;28;45260;-60
2021/05/28 04:05:23;;;;;;;;;23.50;23.50;;;;;13.40;59.26;101698.63;5062236;28;45948;-60
2021/05/28 04:07:48;;;;;;;;;22.25;22.25;;;;;13.38;59.32;101704.81;5062538;28;45314;-61
2021/05/28 04:10:14;;;;;;;;;17.25;17.25;;;;;13.36;59.17;101701.25;5062258;28;45375;-59
2021/05/28 04:12:40;;;;;;;;;17.75;17.75;;;;;13.35;59.20;101708.31;5062354;28;45311;-60
2021/05/28 04:15:07;;;;;;;;;18.00;16.75;;;;;13.30;59.36;101704.84;5068646;28;45366;-60
2021/05/28 04:17:33;;;;;;;;;22.25;17.25;;;;;13.32;59.56;101706.59;5082551;28;45609;-60
2021/05/28 04:19:58;;;;;;;;;17.50;17.00;;;;;13.34;59.44;101711.84;5081353;27;45368;-59
2021/05/28 04:22:24;;;;;;;;;17.75;17.25;;;;;13.28;59.67;101702.25;5069244;27;45260;-59
2021/05/28 04:24:50;;;;;;;;;20.75;20.00;;;;;13.29;60.18;101711.88;5062756;28;45152;-60
2021/05/28 04:27:15;;;;;;;;;25.75;21.50;;;;;13.27;60.01;101718.97;5075234;28;45162;-60
2021/05/28 04:29:40;;;;;;;;;20.50;17.50;;;;;13.26;60.22;101708.44;5062191;27;45936;-61
2021/05/28 04:32:06;;;;;;;;;27.25;22.75;;;;;13.25;60.23;101714.59;5075315;28;45319;-60
2021/05/28 04:34:33;;;;;;;;;24.50;23.50;;;;;13.25;60.30;101718.09;5075476;28;45330;-60
2021/05/28 04:36:59;;;;;;;;;22.50;21.75;;;;;13.25;60.39;101711.94;5061875;28;45371;-59
2021/05/28 04:39:26;;;;;;;;;19.75;18.25;;;;;13.25;60.36;101714.59;5062052;28;46272;-59
2021/05/28 04:41:51;;;;;;;;;23.25;20.75;;;;;13.26;60.36;101719.84;5061585;28;45272;-60
2021/05/28 04:44:17;;;;;;;;;21.25;20.00;;;;;13.29;60.17;101730.34;5077624;28;45482;-60
2021/05/28 04:46:43;;;;;;;;;21.25;20.00;;;;;13.33;59.97;101729.47;5061838;28;45549;-59
2021/05/28 04:49:08;;;;;;;;;32.75;25.75;;;;;13.37;60.13;101734.69;5061510;28;47121;-60
2021/05/28 04:51:34;;;;;;;;;22.25;21.50;;;;;13.38;60.21;101736.47;5075333;28;45222;-61
2021/05/28 04:54:00;;;;;;;;;21.25;21.25;;;;;13.37;60.44;101738.25;5074917;28;45414;-59
2021/05/28 04:56:25;;;;;;;;;22.00;20.00;;;;;13.44;59.98;101747.00;5061557;28;45184;-59
2021/05/28 04:58:50;;;;;;;;;20.25;19.50;;;;;13.47;59.78;101757.50;5059373;28;47351;-58
2021/05/28 05:01:15;;;;;;;;;20.00;17.25;;;;;13.51;59.67;101758.34;5073820;28;45229;-59
2021/05/28 05:03:41;;;;;;;;;18.00;17.75;;;;;13.55;59.34;101762.72;5062500;27;45402;-60
2021/05/28 05:06:06;;;;;;;;;17.25;16.25;;;;;13.58;59.43;101763.53;5061614;28;45248;-60
2021/05/28 05:08:32;;;;;;;;;21.50;20.75;;;;;13.62;59.57;101757.38;5061317;28;45194;-60
2021/05/28 05:10:58;;;;;;;;;20.00;18.50;;;;;13.65;59.38;101752.03;5061441;28;45467;-60
2021/05/28 05:13:23;;;;;;;;;19.50;19.50;;;;;13.70;59.51;101752.00;5066915;28;45520;-60
2021/05/28 05:15:48;;;;;;;;;17.00;16.50;;;;;13.72;59.45;101760.78;5081727;28;45301;-59
2021/05/28 05:18:14;;;;;;;;;25.25;23.25;;;;;13.77;59.62;101766.00;5066818;27;45355;-59
2021/05/28 05:20:39;;;;;;;;;23.25;21.00;;;;;13.79;59.49;101765.09;5081690;27;45497;-61
2021/05/28 05:23:05;;;;;;;;;23.25;22.75;;;;;13.83;59.16;101763.28;5061932;27;45393;-59
2021/05/28 05:25:31;;;;;;;;;24.50;20.75;;;;;13.88;59.06;101764.09;5061750;28;45364;-60
2021/05/28 05:27:56;;;;;;;;;20.25;19.75;;;;;13.77;59.07;101752.78;5074291;28;46198;-59
2021/05/28 05:30:22;;;;;;;;;23.00;19.75;;;;;13.94;59.17;101777.25;5061289;28;45436;-63
2021/05/28 05:32:47;;;;;;;;;21.50;20.00;;;;;13.97;58.99;101774.59;5061185;28;45348;-60
2021/05/28 05:35:14;;;;;;;;;24.75;21.75;;;;;14.01;58.75;101775.41;5060856;28;45275;-59
2021/05/28 05:37:39;;;;;;;;;21.00;16.75;;;;;14.05;58.78;101773.59;5060708;28;47587;-59
2021/05/28 05:40:09;;;;;;;;;21.75;19.00;;;;;14.09;58.50;101772.69;5061081;28;45233;-62
2021/05/28 05:42:39;;;;;;;;;25.25;23.00;;;;;14.16;58.96;101776.13;5060870;28;45245;-59
2021/05/28 05:45:06;;;;;;;;;22.75;20.50;;;;;14.22;58.54;101776.91;5060675;28;45474;-61
2021/05/28 05:47:32;;;;;;;;;22.75;19.50;;;;;14.25;58.34;101763.66;5060711;28;46115;-60
2021/05/28 05:49:57;;;;;;;;;20.25;20.00;;;;;14.35;58.54;101775.00;5060540;28;45267;-60
2021/05/28 05:52:22;;;;;;;;;21.25;20.00;;;;;14.39;58.08;101775.81;5070031;28;45717;-60
2021/05/28 05:54:48;;;;;;;;;19.75;18.00;;;;;14.44;58.17;101784.56;5065957;27;45384;-60
2021/05/28 05:57:13;;;;;;;;;20.75;19.25;;;;;14.53;57.89;101778.28;5065948;28;46195;-59
2021/05/28 05:59:39;;;;;;;;;22.25;19.25;;;;;14.57;57.77;101775.56;5068640;27;45260;-59
2021/05/28 06:02:04;;;;;;;;;23.25;21.25;;;;;14.62;57.71;101772.84;5076206;28;45434;-60
2021/05/28 06:04:30;;;;;;;;;21.50;18.25;;;;;14.65;57.59;101771.97;5071816;28;45385;-60
2021/05/28 06:06:55;;;;;;;;;21.50;20.25;;;;;14.68;57.29;101758.66;5073810;28;47008;-60
2021/05/28 06:09:20;;;;;;;;;22.50;20.00;;;;;14.69;57.47;101758.69;5072791;28;45298;-60
2021/05/28 06:11:45;;;;;;;;;20.25;19.25;;;;;14.67;57.25;101760.47;5061526;27;45332;-59
2021/05/28 06:14:11;;;;;;;;;21.75;21.75;;;;;14.69;57.21;101760.44;5060619;28;45287;-61
2021/05/28 06:16:36;;;;;;;;;23.50;22.75;;;;;14.69;57.14;101757.78;5060214;28;46122;-61
2021/05/28 06:19:02;;;;;;;;;21.50;17.00;;;;;14.71;57.32;101766.59;5071946;28;45386;-61
2021/05/28 06:21:29;;;;;;;;;20.75;19.00;;;;;14.71;57.26;101769.22;5075357;27;45321;-61
2021/05/28 06:23:55;;;;;;;;;20.25;19.00;;;;;14.70;57.17;101765.69;5075980;28;45523;-60
2021/05/28 06:26:30;;;;;;;;;22.25;20.25;;;;;14.72;57.26;101765.69;5066197;28;45302;-60
2021/05/28 06:28:56;;;;;;;;;23.00;20.25;;;;;14.74;57.79;101769.16;5066728;27;45358;-60
2021/05/28 06:31:21;;;;;;;;;24.25;21.75;;;;;14.72;57.23;101763.03;5060354;28;45228;-60
2021/05/28 06:33:46;;;;;;;;;18.25;18.25;;;;;14.76;57.60;101767.38;5059930;28;45385;-61
2021/05/28 06:36:12;;;;;;;;;25.25;21.75;;;;;14.79;57.62;101759.38;5067239;27;45148;-61
2021/05/28 06:38:37;;;;;;;;;19.25;17.50;;;;;14.79;57.57;101760.28;5080064;28;45220;-61
2021/05/28 06:41:02;;;;;;;;;19.50;19.00;;;;;14.87;57.28;101764.59;5060375;27;45594;-60
2021/05/28 06:43:28;;;;;;;;;25.75;21.25;;;;;14.90;57.60;101760.09;5059861;28;45448;-60
2021/05/28 06:45:53;;;;;;;;;21.25;21.25;;;;;14.94;57.50;101753.88;5059979;28;46295;-59
2021/05/28 06:48:19;;;;;;;;;21.00;21.00;;;;;15.00;57.40;101752.88;5059797;28;45429;-60
2021/05/28 06:50:44;;;;;;;;;21.00;20.75;;;;;15.05;57.12;101755.44;5060163;27;45319;-59
2021/05/28 06:53:11;;;;;;;;;21.75;19.00;;;;;15.07;56.88;101758.97;5074899;28;45248;-59
2021/05/28 06:55:37;;;;;;;;;19.25;18.50;;;;;15.11;57.15;101772.09;5059811;28;45334;-60
2021/05/28 06:58:03;;;;;;;;;21.25;20.00;;;;;15.14;56.91;101770.31;5071983;28;45334;-59
2021/05/28 07:00:28;;;;;;;;;23.25;20.50;;;;;15.16;56.90;101774.69;5082003;27;45210;-60
2021/05/28 07:02:55;;;;;;;;;19.50;18.00;;;;;15.23;57.03;101776.31;5067678;27;45554;-59
2021/05/28 07:05:23;;;;;;;;;16.75;16.50;;;;;15.28;56.44;101761.22;5059368;28;47236;-59
2021/05/28 07:07:48;;;;;;;;;22.25;20.50;;;;;15.34;56.45;101762.03;5059730;28;45430;-60
2021/05/28 07:10:14;;;;;;;;;19.00;19.00;;;;;15.33;55.95;101752.31;5059682;28;45341;-60
2021/05/28 07:12:39;;;;;;;;;20.50;18.00;;;;;15.39;56.33;101758.38;5059641;28;45394;-60
2021/05/28 07:15:05;;;;;;;;;20.75;19.00;;;;;15.41;56.28;101761.88;5065578;28;45385;-60
2021/05/28 07:17:31;;;;;;;;;20.50;17.50;;;;;15.46;56.50;101759.16;5078678;28;45806;-60
2021/05/28 07:19:56;;;;;;;;;21.50;20.25;;;;;15.54;55.81;101761.66;5078709;27;45302;-60
2021/05/28 07:22:21;;;;;;;;;20.00;18.00;;;;;15.59;55.88;101763.31;5066931;27;45545;-61
2021/05/28 07:24:47;;;;;;;;;17.00;16.50;;;;;15.67;55.88;101770.25;5063536;28;46171;-61
2021/05/28 07:27:13;;;;;;;;;20.50;14.25;;;;;15.72;55.54;101755.13;5076515;28;45273;-60
2021/05/28 07:29:38;;;;;;;;;17.00;16.50;;;;;15.78;55.10;101762.94;5063106;27;45226;-59
2021/05/28 07:32:04;;;;;;;;;18.50;18.50;;;;;15.84;55.21;101754.06;5063034;28;45198;-59
2021/05/28 07:34:29;;;;;;;;;21.50;20.00;;;;;15.89;55.18;101753.03;5078319;28;46723;-60
2021/05/28 07:36:54;;;;;;;;;19.75;15.75;;;;;15.99;55.05;101755.53;5062976;28;45299;-60
2021/05/28 07:39:20;;;;;;;;;16.00;14.75;;;;;16.07;54.57;101757.13;5062963;28;45387;-61
2021/05/28 07:41:46;;;;;;;;;21.00;16.50;;;;;16.15;54.59;101758.69;5062708;28;45299;-59
2021/05/28 07:44:11;;;;;;;;;17.00;17.00;;;;;16.20;54.17;101759.47;5062654;28;46371;-61
2021/05/28 07:46:43;;;;;;;;;14.75;14.75;;;;;16.27;54.19;101755.78;5062552;28;45181;-60
2021/05/28 07:49:09;;;;;;;;;17.00;16.00;;;;;16.33;53.36;101747.69;5062725;28;45430;-59
2021/05/28 07:51:35;;;;;;;;;16.25;13.25;;;;;16.43;53.44;101740.41;5064839;28;45223;-60
2021/05/28 07:54:00;;;;;;;;;13.25;13.25;;;;;16.49;53.76;101732.31;5074735;27;45572;-59
2021/05/28 07:56:26;;;;;;;;;14.00;12.50;;;;;16.59;52.55;101735.63;5069062;28;45230;-60
2021/05/28 07:58:51;;;;;;;;;13.25;11.75;;;;;16.66;52.32;101736.34;5081561;28;45433;-60
2021/05/28 08:01:16;;;;;;;;;15.25;13.50;;;;;16.71;52.62;101726.50;5070303;27;45252;-60
2021/05/28 08:03:41;;;;;;;;;10.00;10.00;;;;;16.84;52.05;101733.25;5062148;28;45924;-61
2021/05/28 08:06:07;;;;;;;;;13.25;11.50;;;;;16.93;51.44;101729.53;5062495;28;45263;-60
2021/05/28 08:08:32;;;;;;;;;9.25;8.75;;;;;17.03;50.88;101727.50;5062571;28;45405;-62
2021/05/28 08:10:58;;;;;;;;;12.25;9.75;;;;;17.15;50.83;101731.63;5078025;28;46204;-61
2021/05/28 08:13:23;;;;;;;;;10.75;10.00;;;;;17.25;50.54;101727.81;5061996;28;46085;-60
2021/05/28 08:15:49;;;;;;;;;15.00;12.00;;;;;17.35;50.29;101726.66;5062400;28;45457;-60
2021/05/28 08:18:15;;;;;;;;;8.25;8.25;;;;;17.44;49.67;101728.19;5081044;28;45330;-60
2021/05/28 08:20:42;;;;;;;;;9.25;7.50;;;;;17.57;49.28;101730.50;5082475;27;45313;-60
2021/05/28 08:23:07;;;;;;;;;13.50;12.50;;;;;17.69;49.04;101722.19;5068611;27;47291;-60
2021/05/28 08:25:33;;;;;;;;;6.75;6.25;;;;;17.83;49.33;101720.00;5074520;28;45247;-59
2021/05/28 08:27:58;;;;;;;;;11.50;8.75;;;;;17.99;48.24;101716.94;5075530;28;45569;-61
2021/05/28 08:30:24;;;;;;;;;10.00;8.00;;;;;18.15;47.94;101722.66;5062147;28;45224;-59
2021/05/28 08:32:49;;;;;;;;;13.00;11.00;;;;;18.29;47.49;101717.78;5061787;28;45279;-60
2021/05/28 08:35:15;;;;;;;;;8.50;8.50;;;;;18.47;47.62;101719.00;5060425;28;45331;-59
2021/05/28 08:37:41;;;;;;;;;10.25;8.25;;;;;18.67;47.71;101722.81;5061964;28;45450;-60
2021/05/28 08:40:08;;;;;;;;;8.25;6.50;;;;;18.90;47.36;101716.75;5061915;28;45502;-60
2021/05/28 08:42:34;;;;;;;;;7.75;6.75;;;;;19.13;46.57;101709.75;5061557;28;46325;-60
2021/05/28 08:45:00;;;;;;;;;7.75;7.00;;;;;19.41;46.33;101712.34;5061825;28;45326;-60
2021/05/28 08:47:26;;;;;;;;;5.25;5.25;;;;;19.67;45.44;101713.16;5062101;28;45406;-60
2021/05/28 08:49:53;;;;;;;;;6.00;6.00;;;;;19.82;45.13;101709.06;5061567;28;45488;-60
2021/05/28 08:52:20;;;;;;;;;7.00;7.00;;;;;19.90;44.58;101708.78;5070060;28;46290;-59
2021/05/28 08:54:47;;;;;;;;;8.50;6.50;;;;;19.95;43.97;101696.19;5067214;27;45320;-59
2021/05/28 08:57:13;;;;;;;;;8.75;7.75;;;;;19.97;44.21;101704.97;5066982;28;45334;-59
2021/05/28 08:59:39;;;;;;;;;9.50;7.00;;;;;20.04;43.64;101708.28;5069737;27;45295;-59
2021/05/28 09:02:24;;;;;;;;;8.50;5.75;;;;;20.07;44.11;101706.34;5061368;28;46087;-60
2021/05/28 09:05:06;;;;;;;;;9.50;8.50;;;;;20.17;43.69;101714.88;5061101;28;45398;-60
2021/05/28 09:07:31;;;;;;;;;7.50;7.50;;;;;20.21;44.15;101705.81;5061694;28;45377;-60
2021/05/28 09:09:57;;;;;;;;;9.50;7.50;;;;;20.26;44.03;101695.84;5077017;27;45237;-59
2021/05/28 09:12:27;;;;;;;;;7.75;7.75;;;;;20.31;44.03;101698.31;5061568;28;45276;-59
2021/05/28 09:14:53;;;;;;;;;10.25;8.00;;;;;20.35;44.00;101702.63;5077159;28;45340;-59
2021/05/28 09:17:18;;;;;;;;;8.50;7.50;;;;;20.40;43.96;101703.28;5061560;28;45279;-59
2021/05/28 09:19:57;;;;;;;;;9.75;8.75;;;;;20.51;43.37;101702.84;5078490;28;45417;-61
2021/05/28 09:22:33;;;;;;;;;6.00;5.25;;;;;20.58;43.17;101704.34;5081605;28;46117;-61
2021/05/28 09:24:58;;;;;;;;;8.00;8.00;;;;;20.67;42.64;101699.56;5061880;28;45381;-60
2021/05/28 09:27:24;;;;;;;;;10.00;9.25;;;;;20.73;42.42;101699.34;5074633;28;45390;-60
2021/05/28 09:30:15;;;;;;;;;8.75;7.50;;;;;20.81;41.93;101688.31;5076998;28;45339;-60
2021/05/28 09:32:43;;;;;;;;;7.50;7.00;;;;;20.87;42.27;101690.75;5061007;28;46163;-60
2021/05/28 09:35:14;;;;;;;;;8.25;8.25;;;;;20.90;41.44;101685.25;5060774;28;45374;-60
2021/05/28 09:37:46;;;;;;;;;8.25;8.25;;;;;20.90;41.79;101687.94;5061075;28;45348;-61
2021/05/28 09:40:13;;;;;;;;;8.00;8.00;;;;;20.97;41.17;101691.19;5060953;28;45329;-61
2021/05/28 09:42:52;;;;;;;;;9.00;8.25;;;;;21.03;41.78;101681.13;5060829;28;45198;-60
2021/05/28 09:45:43;;;;;;;;;9.00;8.00;;;;;21.13;40.80;101684.28;5060307;28;45533;-61
2021/05/28 09:48:14;;;;;;;;;7.25;6.25;;;;;21.24;40.35;101683.78;5060889;28;45295;-60
2021/05/28 09:50:44;;;;;;;;;6.75;6.75;;;;;21.31;40.12;101682.59;5060859;28;45314;-60
2021/05/28 09:53:28;;;;;;;;;8.50;8.50;;;;;21.38;38.83;101688.50;5075470;28;45465;-61
2021/05/28 09:55:54;;;;;;;;;8.25;7.75;;;;;21.41;39.13;101678.56;5060655;28;45428;-60
2021/05/28 09:58:19;;;;;;;;;6.00;6.00;;;;;21.48;38.69;101683.63;5074072;28;45272;-60
2021/05/28 10:00:45;;;;;;;;;7.50;5.75;;;;;21.51;38.47;101678.13;5060792;28;45177;-60
2021/05/28 10:03:19;;;;;;;;;10.25;7.00;;;;;21.55;39.11;101675.28;5060222;28;46130;-60
2021/05/28 10:05:48;;;;;;;;;7.75;7.75;;;;;21.65;39.33;101680.22;5060708;28;45313;-61
2021/05/28 10:08:15;;;;;;;;;6.75;6.75;;;;;21.81;38.22;101672.34;5060480;27;45406;-60
2021/05/28 10:10:43;;;;;;;;;7.75;7.00;;;;;22.04;38.40;101668.59;5060539;28;45589;-63
2021/05/28 10:13:11;;;;;;;;;7.50;6.00;;;;;22.45;38.64;101673.78;5060006;28;46234;-61
2021/05/28 10:15:49;;;;;;;;;8.25;8.25;;;;;23.08;37.50;101668.81;5060409;28;45284;-60
2021/05/28 10:18:16;;;;;;;;;5.75;5.75;;;;;23.68;36.00;101673.69;5065088;28;45364;-61
2021/05/28 10:20:45;;;;;;;;;8.25;6.50;;;;;24.18;35.40;101658.41;5080694;27;45583;-60
2021/05/28 10:23:11;;;;;;;;;7.00;7.00;;;;;24.74;34.42;101661.47;5066845;28;46377;-60
2021/05/28 10:25:39;;;;;;;;;6.00;6.00;;;;;25.32;33.71;101661.56;5067650;27;45373;-60
2021/05/28 10:28:15;;;;;;;;;5.75;5.75;;;;;26.07;32.79;101658.63;5073341;27;45337;-60
2021/05/28 10:30:43;;;;;;;;;5.25;4.00;;;;;26.84;31.77;101655.34;5075548;28;45304;-61
2021/05/28 10:33:25;;;;;;;;;5.50;5.50;;;;;27.58;30.49;101665.50;5059802;28;45321;-61
2021/05/28 10:35:55;;;;;;;;;5.00;5.00;;;;;28.39;30.38;101655.13;5059976;28;45320;-61
2021/05/28 10:38:29;;;;;;;;;5.00;4.75;;;;;30.03;28.73;101660.41;5060189;28;45319;-60
2021/05/28 10:40:55;;;;;;;;;5.50;5.50;;;;;31.15;26.16;101662.75;5079803;28;45606;-61
2021/05/28 10:43:20;;;;;;;;;4.50;4.50;;;;;32.07;26.23;101665.34;5066992;27;46069;-60
2021/05/28 10:45:58;;;;;;;;;4.75;4.50;;;;;33.38;23.68;101656.81;5079930;27;45152;-61
2021/05/28 10:51:04;;;;;;;;;6.00;6.00;;;;;35.79;22.48;101664.16;5080254;28;45569;-60
2021/05/28 10:53:30;;;;;;;;;7.00;7.00;;;;;37.03;21.99;101670.63;5076599;28;45332;-61
2021/05/28 10:56:09;;;;;;;;;7.50;7.00;;;;;38.43;20.60;101668.22;5059718;28;45246;-60
2021/05/28 10:59:05;;;;;;;;;5.00;5.00;;;;;42.64;18.94;101670.25;5072398;28;45380;-60
2021/05/28 11:01:31;;;;;;;;;3.75;3.75;;;;;45.66;16.34;101672.97;5059522;28;45307;-60
2021/05/28 11:03:57;;;;;;;;;4.00;3.50;;;;;46.88;14.64;101671.66;5059505;28;46959;-60
2021/05/28 11:06:23;;;;;;;;;4.50;4.50;;;;;47.50;13.77;101663.78;5058562;28;45791;-60
2021/05/28 11:08:49;;;;;;;;;5.25;5.25;;;;;48.35;12.83;101665.91;5059921;28;45371;-61
2021/05/28 11:11:36;;;;;;;;;5.00;3.50;;;;;49.24;12.27;101664.94;5059669;28;45229;-61
2021/05/28 11:14:07;;;;;;;;;4.00;4.00;;;;;49.71;11.98;101657.97;5059515;28;45392;-61
2021/05/28 11:16:57;;;;;;;;;4.50;4.50;;;;;48.43;11.75;101657.97;5075144;28;45326;-61
2021/05/28 11:19:23;;;;;;;;;7.50;6.25;;;;;48.84;11.42;101662.47;5073720;28;45290;-62
2021/05/28 11:21:53;;;;;;;;;4.00;4.00;;;;;51.88;10.61;101659.22;5070146;28;45913;-61